createdAt,value
2023-05-10T00:01:49.133Z,16.82
2023-05-10T00:06:50.401Z,16.66
2023-05-10T00:11:51.674Z,16.89
2023-05-10T00:16:53.050Z,16.94
2023-05-10T00:21:54.440Z,16.82
2023-05-10T00:26:55.693Z,16.70
2023-05-10T00:31:57.386Z,16.53
2023-05-10T00:36:58.904Z,16.72
2023-05-10T00:42:01.136Z,16.81
2023-05-10T00:47:02.379Z,16.76
2023-05-10T00:52:04.077Z,16.77
2023-05-10T00:57:05.370Z,16.87
2023-05-10T01:02:06.880Z,16.70
2023-05-10T01:07:08.114Z,16.68
2023-05-10T01:12:09.426Z,16.69
2023-05-10T01:17:10.844Z,16.58
2023-05-10T01:22:12.133Z,16.51
2023-05-10T01:27:13.372Z,16.56
2023-05-10T01:32:14.687Z,16.35
2023-05-10T01:37:16.140Z,16.27
2023-05-10T01:42:17.488Z,16.47
2023-05-10T01:47:18.784Z,16.06
2023-05-10T01:52:23.158Z,16.24
2023-05-10T01:57:24.404Z,16.48
2023-05-10T02:02:25.686Z,16.51
2023-05-10T02:07:27.021Z,16.60
2023-05-10T02:12:28.264Z,16.63
2023-05-10T02:17:29.715Z,16.70
2023-05-10T02:22:31.033Z,16.77
2023-05-10T02:27:32.294Z,16.70
2023-05-10T02:32:33.517Z,16.64
2023-05-10T02:37:34.749Z,16.59
2023-05-10T02:42:36.047Z,16.64
2023-05-10T02:47:37.408Z,16.40
2023-05-10T02:52:38.683Z,16.34
2023-05-10T02:57:39.960Z,16.33
2023-05-10T03:02:41.513Z,16.24
2023-05-10T03:07:42.909Z,16.13
2023-05-10T03:12:44.174Z,15.93
2023-05-10T03:17:45.721Z,15.62
2023-05-10T03:22:47.220Z,15.64
2023-05-10T03:27:48.515Z,15.89
2023-05-10T03:32:49.822Z,15.67
2023-05-10T03:37:51.111Z,15.18
2023-05-10T03:42:52.348Z,14.23
2023-05-10T03:47:53.870Z,14.60
2023-05-10T03:52:55.199Z,14.93
2023-05-10T03:57:56.525Z,14.85
2023-05-10T04:02:57.909Z,14.73
2023-05-10T04:07:59.256Z,14.76
2023-05-10T04:13:00.575Z,15.01
2023-05-10T04:18:02.240Z,14.92
2023-05-10T04:23:04.048Z,14.78
2023-05-10T04:28:05.641Z,15.09
2023-05-10T04:33:06.964Z,15.06
2023-05-10T04:38:08.337Z,15.00
2023-05-10T04:43:09.627Z,14.92
2023-05-10T04:48:10.859Z,14.91
2023-05-10T04:53:13.167Z,14.96
2023-05-10T04:58:15.844Z,14.94
2023-05-10T05:03:17.196Z,14.89
2023-05-10T05:08:18.638Z,14.21
2023-05-10T05:13:20.070Z,14.53
2023-05-10T05:18:21.476Z,14.31
2023-05-10T05:23:25.699Z,14.50
2023-05-10T05:28:27.104Z,14.50
2023-05-10T05:33:28.562Z,13.57
2023-05-10T05:38:29.827Z,14.42
2023-05-10T05:43:31.214Z,14.61
2023-05-10T05:48:32.594Z,14.86
2023-05-10T05:53:33.850Z,14.82
2023-05-10T05:58:35.107Z,14.89
2023-05-10T06:03:36.466Z,14.98
2023-05-10T06:08:37.732Z,15.21
2023-05-10T06:13:39.171Z,15.06
2023-05-10T06:18:40.529Z,15.15
2023-05-10T06:23:41.818Z,15.23
2023-05-10T06:28:43.145Z,15.34
2023-05-10T06:33:44.485Z,15.24
2023-05-10T06:38:45.770Z,15.23
2023-05-10T06:43:47.095Z,15.32
2023-05-10T06:48:48.348Z,15.49
2023-05-10T06:53:49.710Z,15.33
2023-05-10T06:58:51.113Z,15.52
2023-05-10T07:03:52.455Z,15.66
2023-05-10T07:08:53.742Z,15.50
2023-05-10T07:13:55.063Z,15.63
2023-05-10T07:18:56.447Z,15.56
2023-05-10T07:23:57.746Z,15.82
2023-05-10T07:28:58.976Z,16.05
2023-05-10T07:34:00.254Z,16.26
2023-05-10T07:39:01.555Z,15.98
2023-05-10T07:44:02.875Z,15.93
2023-05-10T07:49:04.151Z,16.35
2023-05-10T07:54:05.480Z,16.65
2023-05-10T07:59:08.144Z,16.30
2023-05-10T08:04:10.654Z,16.53
2023-05-10T08:09:11.948Z,15.94
2023-05-10T08:14:13.216Z,16.53
2023-05-10T08:19:14.543Z,16.06
2023-05-10T08:24:15.947Z,16.17
2023-05-10T08:29:17.296Z,16.48
2023-05-10T08:34:18.544Z,16.51
2023-05-10T08:39:29.862Z,16.18
2023-05-10T08:44:31.927Z,16.51
2023-05-10T08:49:33.743Z,16.39
2023-05-10T08:54:35.280Z,15.95
2023-05-10T08:59:36.633Z,16.25
2023-05-10T09:04:38.069Z,15.83
2023-05-10T09:09:39.448Z,15.75
2023-05-10T09:14:41.238Z,16.05
2023-05-10T09:19:42.665Z,15.95
2023-05-10T09:24:46.166Z,16.35
2023-05-10T09:29:47.434Z,16.46
2023-05-10T09:34:48.812Z,16.79
2023-05-10T09:39:50.111Z,16.86
2023-05-10T09:44:51.404Z,16.80
2023-05-10T09:49:53.225Z,16.16
2023-05-10T09:54:54.838Z,16.31
2023-05-10T09:59:56.276Z,16.43
2023-05-10T10:04:57.707Z,16.19
2023-05-10T10:09:58.959Z,16.16
2023-05-10T10:15:00.211Z,16.20
2023-05-10T10:20:01.537Z,17.23
2023-05-10T10:25:02.865Z,17.87
2023-05-10T10:30:04.344Z,17.96
2023-05-10T10:35:05.579Z,18.85
2023-05-10T10:40:06.839Z,19.31
2023-05-10T10:45:10.017Z,18.44
2023-05-10T10:50:19.518Z,18.94
2023-05-10T10:55:23.250Z,18.89
2023-05-10T11:00:24.617Z,18.73
2023-05-10T11:05:26.129Z,19.87
2023-05-10T11:10:27.366Z,20.19
2023-05-10T11:15:28.648Z,19.11
2023-05-10T11:20:34.351Z,19.00
2023-05-10T11:25:35.639Z,19.01
2023-05-10T11:30:36.920Z,18.86
2023-05-10T11:35:38.188Z,18.81
2023-05-10T11:40:39.507Z,19.33
2023-05-10T11:45:41.012Z,18.76
2023-05-10T11:50:42.253Z,19.56
2023-05-10T11:55:43.467Z,20.43
2023-05-10T12:00:44.700Z,20.01
2023-05-10T12:05:46.001Z,20.35
2023-05-10T12:10:47.331Z,19.03
2023-05-10T12:15:48.569Z,19.34
2023-05-10T12:20:49.850Z,19.19
2023-05-10T12:25:52.416Z,19.42
2023-05-10T12:30:53.854Z,19.72
2023-05-10T12:35:55.173Z,19.61
2023-05-10T12:40:56.447Z,19.59
2023-05-10T12:45:58.006Z,18.58
2023-05-10T12:50:59.276Z,16.72
2023-05-10T12:56:00.646Z,16.28
2023-05-10T13:01:01.915Z,16.38
2023-05-10T13:06:03.274Z,16.50
2023-05-10T13:11:04.601Z,17.20
2023-05-10T13:16:05.958Z,17.41
2023-05-10T13:21:08.465Z,17.63
2023-05-10T13:26:09.687Z,17.84
2023-05-10T13:31:11.350Z,17.67
2023-05-10T13:36:12.600Z,17.64
2023-05-10T13:41:13.853Z,16.97
2023-05-10T13:46:15.127Z,17.38
2023-05-10T13:51:16.421Z,17.51
2023-05-10T13:56:17.689Z,17.41
2023-05-10T14:01:18.963Z,17.42
2023-05-10T14:06:20.285Z,17.69
2023-05-10T14:11:23.930Z,17.17
2023-05-10T14:16:26.180Z,17.48
2023-05-10T14:21:27.600Z,17.84
2023-05-10T14:26:28.888Z,17.73
2023-05-10T14:31:31.464Z,17.89
2023-05-10T14:36:33.150Z,17.74
2023-05-10T14:41:34.457Z,17.98
2023-05-10T14:46:36.078Z,17.84
2023-05-10T14:51:37.881Z,17.62
2023-05-10T14:56:39.332Z,17.57
2023-05-10T15:01:42.812Z,17.53
2023-05-10T15:06:44.732Z,17.30
2023-05-10T15:11:46.046Z,17.31
2023-05-10T15:16:47.803Z,17.32
2023-05-10T15:21:49.069Z,17.38
2023-05-10T15:26:50.432Z,16.94
2023-05-10T15:31:52.350Z,17.31
2023-05-10T15:36:53.813Z,16.54
2023-05-10T15:41:55.036Z,16.87
2023-05-10T15:46:56.832Z,16.32
2023-05-10T15:51:58.151Z,16.14
2023-05-10T15:57:00.165Z,16.37
2023-05-10T16:02:01.469Z,16.60
2023-05-10T16:07:02.736Z,16.53
2023-05-10T16:12:04.423Z,16.41
2023-05-10T16:17:10.342Z,16.27
2023-05-10T16:22:11.622Z,16.27
2023-05-10T16:27:13.322Z,15.91
2023-05-10T16:32:14.583Z,16.17
2023-05-10T16:37:15.993Z,16.27
2023-05-10T16:42:17.552Z,16.23
2023-05-10T16:47:18.830Z,16.16
2023-05-10T16:52:20.084Z,15.41
2023-05-10T16:57:21.342Z,15.40
2023-05-10T17:02:22.766Z,15.43
2023-05-10T17:07:26.183Z,15.07
2023-05-10T17:12:27.638Z,15.21
2023-05-10T17:17:28.959Z,14.84
2023-05-10T17:22:30.418Z,15.09
2023-05-10T17:27:31.714Z,15.01
2023-05-10T17:32:32.997Z,14.96
2023-05-10T17:37:34.291Z,14.77
2023-05-10T17:42:35.504Z,14.83
2023-05-10T17:47:36.814Z,15.20
2023-05-10T17:52:38.068Z,15.21
2023-05-10T17:57:39.330Z,15.44
2023-05-10T18:02:40.600Z,15.23
2023-05-10T18:07:41.971Z,15.35
2023-05-10T18:12:43.720Z,15.66
2023-05-10T18:17:45.207Z,15.00
2023-05-10T18:22:46.553Z,14.66
2023-05-10T18:27:48.296Z,13.57
2023-05-10T18:32:49.657Z,13.29
2023-05-10T18:37:51.026Z,13.47
2023-05-10T18:42:52.243Z,13.50
2023-05-10T18:47:53.563Z,13.33
2023-05-10T18:52:56.627Z,13.62
2023-05-10T18:57:57.881Z,13.76
2023-05-10T19:02:59.186Z,13.77
2023-05-10T19:08:00.497Z,13.70
2023-05-10T19:13:01.717Z,14.43
2023-05-10T19:18:03.049Z,14.32
2023-05-10T19:28:10.253Z,14.17
2023-05-10T19:33:12.634Z,14.41
2023-05-10T19:38:14.041Z,14.47
2023-05-10T19:43:15.389Z,14.44
2023-05-10T19:48:16.713Z,14.35
2023-05-10T19:53:18.054Z,13.80
2023-05-10T19:58:19.667Z,13.91
2023-05-10T20:03:21.029Z,14.26
2023-05-10T20:08:22.459Z,14.32
2023-05-10T20:13:23.974Z,14.29
2023-05-10T20:18:25.327Z,14.54
2023-05-10T20:23:26.739Z,14.54
2023-05-10T20:28:28.911Z,14.22
2023-05-10T20:33:30.173Z,14.18
2023-05-10T20:38:31.402Z,14.37
2023-05-10T20:43:32.756Z,14.13
2023-05-10T20:48:34.264Z,13.93
2023-05-10T20:53:35.547Z,13.57
2023-05-10T20:58:36.841Z,13.23
2023-05-10T21:03:38.207Z,13.50
2023-05-10T21:08:39.432Z,13.59
2023-05-10T21:13:40.698Z,14.18
2023-05-10T21:18:41.960Z,14.42
2023-05-10T21:23:43.215Z,14.46
2023-05-10T21:28:44.569Z,14.18
2023-05-10T21:33:47.090Z,13.87
2023-05-10T21:38:50.353Z,13.51
2023-05-10T21:43:51.652Z,13.27
2023-05-10T21:48:52.901Z,12.84
2023-05-10T21:53:54.298Z,12.92
2023-05-10T21:58:55.649Z,12.95
2023-05-10T22:03:56.945Z,13.48
2023-05-10T22:08:58.212Z,13.96
2023-05-10T22:13:59.580Z,14.17
2023-05-10T22:19:01.163Z,14.23
2023-05-10T22:24:02.522Z,14.58
2023-05-10T22:29:03.971Z,14.61
2023-05-10T22:34:05.794Z,14.57
2023-05-10T22:39:07.045Z,14.62
2023-05-10T22:44:08.665Z,14.44
2023-05-10T22:49:10.098Z,14.10
2023-05-10T22:54:11.330Z,13.95
2023-05-10T22:59:12.618Z,13.83
2023-05-10T23:04:13.878Z,13.70
2023-05-10T23:09:16.456Z,13.91
2023-05-10T23:14:18.012Z,13.91
2023-05-10T23:19:19.295Z,13.60
2023-05-10T23:24:20.639Z,13.75
2023-05-10T23:29:23.804Z,13.61
2023-05-10T23:34:25.040Z,13.43
2023-05-10T23:39:26.297Z,13.50
2023-05-10T23:44:27.589Z,13.47
2023-05-10T23:49:29.420Z,13.72
2023-05-10T23:54:30.671Z,13.45
2023-05-10T23:59:31.889Z,13.38
